createdAt,value
2023-03-27T00:01:22.177Z,100.00
2023-03-27T00:03:50.644Z,100.00
2023-03-27T00:06:19.135Z,100.00
2023-03-27T00:08:51.051Z,100.00
2023-03-27T00:11:18.724Z,100.00
2023-03-27T00:13:49.302Z,100.00
2023-03-27T00:16:23.665Z,100.00
2023-03-27T00:18:50.364Z,100.00
2023-03-27T00:21:16.886Z,100.00
2023-03-27T00:23:43.368Z,100.00
2023-03-27T00:26:11.857Z,100.00
2023-03-27T00:28:38.589Z,100.00
2023-03-27T00:31:11.546Z,100.00
2023-03-27T00:33:38.315Z,100.00
2023-03-27T00:36:05.207Z,100.00
2023-03-27T00:38:32.212Z,100.00
2023-03-27T00:40:58.832Z,100.00
2023-03-27T00:43:41.046Z,100.00
2023-03-27T00:46:44.863Z,100.00
2023-03-27T00:49:14.487Z,100.00
2023-03-27T00:51:44.108Z,100.00
2023-03-27T00:54:13.179Z,100.00
2023-03-27T00:56:39.784Z,100.00
2023-03-27T00:59:12.473Z,100.00
2023-03-27T01:01:40.086Z,100.00
2023-03-27T01:04:08.995Z,100.00
2023-03-27T01:06:36.771Z,100.00
2023-03-27T01:09:04.575Z,100.00
2023-03-27T01:11:53.067Z,100.00
2023-03-27T01:14:46.730Z,100.00
2023-03-27T01:17:32.413Z,100.00
2023-03-27T01:20:20.231Z,100.00
2023-03-27T01:23:11.835Z,100.00
2023-03-27T01:26:04.340Z,100.00
2023-03-27T01:28:44.192Z,100.00
2023-03-27T01:31:29.571Z,100.00
2023-03-27T01:34:02.098Z,100.00
2023-03-27T01:36:43.454Z,100.00
2023-03-27T01:39:57.977Z,100.00
2023-03-27T01:42:41.351Z,100.00
2023-03-27T01:45:15.774Z,100.00
2023-03-27T01:47:51.621Z,100.00
2023-03-27T01:50:23.789Z,100.00
2023-03-27T01:52:56.228Z,100.00
2023-03-27T01:55:29.126Z,100.00
2023-03-27T01:58:05.084Z,100.00
2023-03-27T02:00:51.936Z,100.00
2023-03-27T02:03:28.966Z,100.00
2023-03-27T02:06:08.631Z,100.00
2023-03-27T02:08:46.531Z,100.00
2023-03-27T02:11:23.488Z,100.00
2023-03-27T02:14:03.747Z,100.00
2023-03-27T02:16:35.632Z,100.00
2023-03-27T02:19:12.690Z,100.00
2023-03-27T02:21:39.183Z,100.00
2023-03-27T02:24:06.488Z,100.00
2023-03-27T02:26:33.850Z,100.00
2023-03-27T02:29:23.735Z,100.00
2023-03-27T02:32:35.185Z,100.00
2023-03-27T02:35:22.794Z,100.00
2023-03-27T02:38:08.327Z,100.00
2023-03-27T02:40:44.649Z,100.00
2023-03-27T02:43:46.924Z,100.00
2023-03-27T02:46:31.888Z,100.00
2023-03-27T02:49:04.606Z,100.00
2023-03-27T02:51:37.290Z,100.00
2023-03-27T02:54:12.906Z,100.00
2023-03-27T02:56:47.459Z,100.00
2023-03-27T02:59:35.581Z,100.00
2023-03-27T03:02:09.465Z,100.00
2023-03-27T03:04:57.021Z,100.00
2023-03-27T03:07:28.698Z,100.00
2023-03-27T03:09:55.319Z,100.00
2023-03-27T03:12:22.006Z,100.00
2023-03-27T03:14:48.567Z,100.00
2023-03-27T03:17:16.309Z,100.00
2023-03-27T03:19:44.823Z,100.00
2023-03-27T03:22:11.346Z,100.00
2023-03-27T03:24:42.373Z,100.00
2023-03-27T03:27:10.873Z,100.00
2023-03-27T03:29:47.378Z,100.00
2023-03-27T03:32:20.632Z,100.00
2023-03-27T03:34:50.606Z,100.00
2023-03-27T03:37:17.457Z,100.00
2023-03-27T03:39:44.031Z,100.00
2023-03-27T03:42:10.645Z,100.00
2023-03-27T03:44:51.109Z,100.00
2023-03-27T03:47:19.768Z,100.00
2023-03-27T03:49:47.361Z,100.00
2023-03-27T03:52:14.703Z,100.00
2023-03-27T03:54:41.446Z,100.00
2023-03-27T03:57:08.748Z,100.00
2023-03-27T03:59:35.654Z,100.00
2023-03-27T04:02:28.845Z,100.00
2023-03-27T04:05:10.593Z,100.00
2023-03-27T04:07:39.989Z,100.00
2023-03-27T04:10:26.646Z,100.00
2023-03-27T04:12:53.497Z,100.00
2023-03-27T04:15:27.090Z,100.00
2023-03-27T04:18:04.165Z,100.00
2023-03-27T04:20:34.594Z,100.00
2023-03-27T04:23:03.832Z,100.00
2023-03-27T04:25:34.869Z,100.00
2023-03-27T04:28:04.268Z,100.00
2023-03-27T04:30:37.081Z,100.00
2023-03-27T04:33:22.876Z,100.00
2023-03-27T04:36:16.425Z,100.00
2023-03-27T04:39:02.204Z,100.00
2023-03-27T04:41:29.590Z,100.00
2023-03-27T04:43:56.156Z,100.00
2023-03-27T04:46:23.257Z,100.00
2023-03-27T04:48:56.370Z,100.00
2023-03-27T04:51:42.370Z,100.00
2023-03-27T04:54:10.310Z,100.00
2023-03-27T04:56:42.198Z,100.00
2023-03-27T04:59:08.896Z,100.00
2023-03-27T05:01:36.092Z,100.00
2023-03-27T05:04:27.200Z,100.00
2023-03-27T05:07:12.077Z,100.00
2023-03-27T05:09:38.680Z,100.00
2023-03-27T05:12:06.708Z,100.00
2023-03-27T05:14:40.150Z,100.00
2023-03-27T05:17:16.052Z,100.00
2023-03-27T05:19:44.808Z,100.00
2023-03-27T05:22:13.813Z,100.00
2023-03-27T05:24:49.196Z,100.00
2023-03-27T05:27:15.670Z,100.00
2023-03-27T05:29:47.345Z,100.00
2023-03-27T05:32:14.850Z,100.00
2023-03-27T05:35:04.362Z,100.00
2023-03-27T05:37:37.324Z,100.00
2023-03-27T05:40:28.237Z,100.00
2023-03-27T05:42:56.375Z,100.00
2023-03-27T05:45:26.893Z,100.00
2023-03-27T05:47:56.002Z,100.00
2023-03-27T05:50:26.397Z,100.00
2023-03-27T05:53:02.950Z,100.00
2023-03-27T05:55:37.097Z,100.00
2023-03-27T05:58:06.029Z,100.00
2023-03-27T06:00:34.343Z,100.00
2023-03-27T06:03:02.986Z,100.00
2023-03-27T06:05:48.869Z,100.00
2023-03-27T06:08:15.665Z,100.00
2023-03-27T06:10:44.088Z,100.00
2023-03-27T06:13:24.058Z,100.00
2023-03-27T06:15:56.345Z,100.00
2023-03-27T06:18:42.297Z,100.00
2023-03-27T06:21:10.703Z,100.00
2023-03-27T06:23:37.656Z,100.00
2023-03-27T06:26:10.086Z,100.00
2023-03-27T06:28:36.790Z,100.00
2023-03-27T06:31:03.989Z,100.00
2023-03-27T06:33:40.392Z,100.00
2023-03-27T06:36:15.869Z,100.00
2023-03-27T06:38:43.910Z,100.00
2023-03-27T06:41:10.497Z,100.00
2023-03-27T06:43:57.587Z,100.00
2023-03-27T06:46:45.916Z,100.00
2023-03-27T06:49:32.854Z,100.00
2023-03-27T06:52:05.761Z,100.00
2023-03-27T06:54:32.289Z,100.00
2023-03-27T06:57:01.234Z,100.00
2023-03-27T06:59:36.188Z,100.00
2023-03-27T07:02:03.675Z,100.00
2023-03-27T07:04:33.857Z,100.00
2023-03-27T07:07:11.080Z,100.00
2023-03-27T07:09:41.151Z,100.00
2023-03-27T07:12:09.404Z,100.00
2023-03-27T07:14:38.008Z,100.00
2023-03-27T07:17:05.352Z,100.00
2023-03-27T07:20:03.916Z,100.00
2023-03-27T07:22:31.055Z,100.00
2023-03-27T07:25:04.791Z,100.00
2023-03-27T07:27:37.512Z,100.00
2023-03-27T07:30:07.874Z,100.00
2023-03-27T07:32:38.203Z,100.00
2023-03-27T07:35:08.526Z,100.00
2023-03-27T07:37:54.532Z,100.00
2023-03-27T07:40:40.175Z,100.00
2023-03-27T07:43:27.388Z,100.00
2023-03-27T07:45:54.127Z,100.00
2023-03-27T07:48:21.583Z,100.00
2023-03-27T07:50:48.056Z,100.00
2023-03-27T07:53:32.457Z,100.00
2023-03-27T07:56:06.092Z,100.00
2023-03-27T07:58:32.693Z,100.00
2023-03-27T08:01:01.895Z,100.00
2023-03-27T08:03:31.819Z,100.00
2023-03-27T08:06:00.106Z,100.00
2023-03-27T08:08:29.755Z,100.00
2023-03-27T08:10:58.075Z,100.00
2023-03-27T08:13:29.014Z,100.00
2023-03-27T08:16:04.865Z,100.00
2023-03-27T08:18:31.349Z,100.00
2023-03-27T08:20:58.438Z,100.00
2023-03-27T08:23:27.304Z,100.00
2023-03-27T08:26:14.463Z,100.00
2023-03-27T08:28:47.925Z,100.00
2023-03-27T08:31:16.256Z,100.00
2023-03-27T08:33:44.335Z,100.00
2023-03-27T08:36:16.298Z,100.00
2023-03-27T08:38:43.282Z,100.00
2023-03-27T08:41:33.087Z,100.00
2023-03-27T08:44:31.865Z,100.00
2023-03-27T08:47:34.036Z,100.00
2023-03-27T08:50:41.179Z,100.00
2023-03-27T08:53:35.461Z,100.00
2023-03-27T08:56:04.936Z,100.00
2023-03-27T08:58:38.016Z,100.00
2023-03-27T09:01:44.953Z,100.00
2023-03-27T09:04:38.727Z,100.00
2023-03-27T09:07:18.695Z,100.00
2023-03-27T09:10:25.577Z,100.00
2023-03-27T09:13:04.805Z,100.00
2023-03-27T09:15:44.868Z,100.00
2023-03-27T09:18:30.982Z,100.00
2023-03-27T09:21:17.792Z,100.00
2023-03-27T09:23:46.377Z,100.00
2023-03-27T09:26:34.671Z,100.00
2023-03-27T09:29:20.266Z,100.00
2023-03-27T09:31:53.131Z,100.00
2023-03-27T09:34:29.718Z,100.00
2023-03-27T09:36:59.163Z,100.00
2023-03-27T09:39:32.461Z,100.00
2023-03-27T09:42:26.320Z,100.00
2023-03-27T09:44:56.869Z,100.00
2023-03-27T09:47:33.328Z,100.00
2023-03-27T09:50:22.267Z,100.00
2023-03-27T09:53:17.388Z,100.00
2023-03-27T09:55:55.554Z,100.00
2023-03-27T09:58:27.846Z,100.00
2023-03-27T10:01:16.062Z,100.00
2023-03-27T10:03:56.027Z,100.00
2023-03-27T10:06:39.260Z,100.00
2023-03-27T10:09:32.086Z,100.00
2023-03-27T10:12:19.539Z,100.00
2023-03-27T10:14:52.689Z,100.00
2023-03-27T10:17:40.674Z,100.00
2023-03-27T10:20:15.945Z,100.00
2023-03-27T10:22:54.917Z,100.00
2023-03-27T10:25:38.778Z,100.00
2023-03-27T10:28:24.657Z,100.00
2023-03-27T10:31:34.099Z,100.00
2023-03-27T10:34:08.134Z,100.00
2023-03-27T10:37:20.435Z,100.00
2023-03-27T10:39:53.084Z,100.00
2023-03-27T10:42:32.703Z,100.00
2023-03-27T10:45:00.176Z,100.00
2023-03-27T10:47:33.776Z,100.00
2023-03-27T10:50:09.871Z,100.00
2023-03-27T10:53:19.583Z,100.00
2023-03-27T10:56:10.950Z,100.00
2023-03-27T10:58:52.084Z,100.00
2023-03-27T11:01:40.606Z,100.00
2023-03-27T11:04:58.282Z,100.00
2023-03-27T11:07:33.786Z,100.00
2023-03-27T11:10:06.396Z,100.00
2023-03-27T11:12:36.719Z,100.00
2023-03-27T11:15:22.384Z,100.00
2023-03-27T11:18:29.051Z,100.00
2023-03-27T11:21:04.548Z,100.00
2023-03-27T11:24:03.892Z,100.00
2023-03-27T11:27:03.506Z,100.00
2023-03-27T11:29:35.871Z,100.00
2023-03-27T11:32:50.207Z,100.00
2023-03-27T11:35:24.646Z,100.00
2023-03-27T11:38:19.319Z,100.00
2023-03-27T11:40:47.884Z,91.86
2023-03-27T11:43:16.734Z,92.56
2023-03-27T11:46:02.355Z,92.86
2023-03-27T11:49:00.536Z,100.00
2023-03-27T11:51:47.887Z,90.06
2023-03-27T11:54:40.584Z,95.20
2023-03-27T11:57:23.589Z,100.00
2023-03-27T12:00:33.840Z,100.00
2023-03-27T12:03:28.676Z,100.00
2023-03-27T12:06:22.496Z,100.00
2023-03-27T12:09:03.044Z,98.34
2023-03-27T12:11:47.816Z,96.71
2023-03-27T12:14:40.568Z,100.00
2023-03-27T12:17:36.653Z,100.00
2023-03-27T12:20:23.908Z,100.00
2023-03-27T12:23:12.568Z,97.37
2023-03-27T12:25:49.578Z,100.00
2023-03-27T12:28:49.817Z,98.13
2023-03-27T12:31:54.980Z,100.00
2023-03-27T12:35:06.330Z,100.00
2023-03-27T12:37:48.950Z,100.00
2023-03-27T12:40:59.135Z,100.00
2023-03-27T12:43:33.632Z,100.00
2023-03-27T12:46:24.272Z,95.45
2023-03-27T12:49:02.519Z,94.38
2023-03-27T12:51:38.894Z,92.37
2023-03-27T12:54:13.482Z,98.86
2023-03-27T12:56:41.123Z,98.43
2023-03-27T12:59:20.397Z,94.22
2023-03-27T13:02:03.466Z,89.16
2023-03-27T13:05:08.603Z,81.31
2023-03-27T13:07:50.009Z,87.78
2023-03-27T13:11:16.192Z,85.54
2023-03-27T13:14:13.095Z,76.13
2023-03-27T13:17:14.878Z,73.08
2023-03-27T13:19:47.708Z,82.53
2023-03-27T13:23:03.212Z,79.49
2023-03-27T13:25:48.968Z,75.56
2023-03-27T13:28:39.157Z,77.68
2023-03-27T13:31:12.145Z,73.24
2023-03-27T13:34:21.754Z,81.22
2023-03-27T13:37:06.681Z,82.10
2023-03-27T13:39:48.123Z,88.36
2023-03-27T13:42:22.588Z,76.23
2023-03-27T13:45:04.577Z,77.31
2023-03-27T13:47:58.923Z,76.84
2023-03-27T13:51:00.625Z,82.71
2023-03-27T13:53:49.458Z,80.66
2023-03-27T13:57:07.284Z,72.21
2023-03-27T14:00:24.692Z,71.34
2023-03-27T14:03:10.781Z,68.64
2023-03-27T14:06:20.231Z,67.86
2023-03-27T14:09:10.881Z,67.67
2023-03-27T14:12:19.725Z,68.54
2023-03-27T14:15:14.233Z,74.63
2023-03-27T14:17:53.101Z,73.10
2023-03-27T14:20:26.568Z,75.36
2023-03-27T14:23:03.312Z,81.26
2023-03-27T14:25:47.637Z,83.03
2023-03-27T14:28:49.263Z,87.09
2023-03-27T14:31:19.243Z,91.81
2023-03-27T14:34:13.288Z,95.32
2023-03-27T14:36:42.471Z,100.00
2023-03-27T14:39:25.058Z,100.00
2023-03-27T14:42:01.513Z,98.55
2023-03-27T14:44:32.450Z,99.76
2023-03-27T14:47:08.240Z,100.00
2023-03-27T14:49:48.917Z,99.93
2023-03-27T14:52:24.988Z,100.00
2023-03-27T14:55:29.796Z,100.00
2023-03-27T14:58:18.535Z,92.69
2023-03-27T15:00:57.947Z,90.93
2023-03-27T15:03:30.324Z,92.23
2023-03-27T15:06:04.435Z,92.51
2023-03-27T15:08:39.956Z,93.60
2023-03-27T15:11:19.762Z,93.23
2023-03-27T15:14:20.564Z,91.04
2023-03-27T15:17:01.483Z,97.83
2023-03-27T15:19:34.877Z,100.00
2023-03-27T15:22:14.688Z,98.06
2023-03-27T15:24:50.820Z,100.00
2023-03-27T15:27:26.845Z,99.91
2023-03-27T15:30:02.711Z,97.24
2023-03-27T15:32:42.208Z,96.03
2023-03-27T15:35:15.618Z,96.34
2023-03-27T15:37:42.812Z,95.58
2023-03-27T15:40:31.168Z,95.08
2023-03-27T15:43:02.337Z,94.23
2023-03-27T15:45:53.106Z,100.00
2023-03-27T15:48:21.132Z,96.11
2023-03-27T15:50:54.269Z,95.01
2023-03-27T15:53:45.167Z,93.01
2023-03-27T15:56:36.991Z,94.90
2023-03-27T15:59:09.262Z,97.40
2023-03-27T16:01:42.046Z,93.67
2023-03-27T16:04:14.106Z,98.22
2023-03-27T16:06:44.945Z,98.64
2023-03-27T16:09:35.224Z,99.03
2023-03-27T16:12:01.928Z,100.00
2023-03-27T16:14:29.959Z,99.04
2023-03-27T16:17:09.951Z,100.00
2023-03-27T16:19:56.433Z,99.83
2023-03-27T16:22:33.939Z,100.00
2023-03-27T16:25:01.654Z,100.00
2023-03-27T16:27:33.862Z,100.00
2023-03-27T16:30:00.439Z,100.00
2023-03-27T16:32:26.933Z,99.88
2023-03-27T16:34:53.493Z,98.58
2023-03-27T16:37:22.979Z,93.32
2023-03-27T16:39:49.995Z,99.45
2023-03-27T16:42:19.214Z,100.00
2023-03-27T16:44:46.460Z,100.00
2023-03-27T16:47:14.351Z,100.00
2023-03-27T16:49:41.194Z,100.00
2023-03-27T16:52:08.372Z,100.00
2023-03-27T16:54:35.094Z,100.00
2023-03-27T16:57:01.625Z,100.00
2023-03-27T16:59:28.374Z,100.00
2023-03-27T17:01:55.782Z,100.00
2023-03-27T17:04:22.989Z,100.00
2023-03-27T17:06:49.844Z,100.00
2023-03-27T17:09:16.286Z,100.00
2023-03-27T17:11:43.191Z,100.00
2023-03-27T17:14:10.030Z,100.00
2023-03-27T17:16:36.586Z,100.00
2023-03-27T17:19:03.163Z,100.00
2023-03-27T17:21:29.709Z,100.00
2023-03-27T17:23:58.005Z,100.00
2023-03-27T17:26:29.530Z,100.00
2023-03-27T17:28:56.710Z,100.00
2023-03-27T17:31:23.827Z,100.00
2023-03-27T17:33:50.589Z,100.00
2023-03-27T17:36:26.840Z,100.00
2023-03-27T17:39:05.754Z,100.00
2023-03-27T17:41:32.647Z,100.00
2023-03-27T17:43:59.386Z,100.00
2023-03-27T17:46:26.033Z,100.00
2023-03-27T17:48:52.676Z,100.00
2023-03-27T17:51:19.153Z,100.00
2023-03-27T17:53:45.828Z,100.00
2023-03-27T17:56:12.274Z,100.00
2023-03-27T17:58:38.768Z,100.00
2023-03-27T18:01:16.346Z,100.00
2023-03-27T18:03:43.020Z,100.00
2023-03-27T18:06:09.632Z,100.00
2023-03-27T18:08:36.466Z,100.00
2023-03-27T18:11:07.708Z,100.00
2023-03-27T18:13:34.473Z,100.00
2023-03-27T18:16:04.296Z,100.00
2023-03-27T18:18:32.941Z,100.00
2023-03-27T18:20:59.727Z,100.00
2023-03-27T18:23:27.110Z,100.00
2023-03-27T18:25:55.227Z,100.00
2023-03-27T18:28:22.297Z,100.00
2023-03-27T18:30:58.009Z,100.00
2023-03-27T18:33:24.635Z,100.00
2023-03-27T18:35:56.763Z,100.00
2023-03-27T18:38:25.023Z,100.00
2023-03-27T18:40:52.231Z,100.00
2023-03-27T18:43:18.722Z,100.00
2023-03-27T18:45:45.231Z,100.00
2023-03-27T18:48:11.762Z,100.00
2023-03-27T18:50:38.247Z,100.00
2023-03-27T18:53:05.385Z,100.00
2023-03-27T18:55:32.374Z,100.00
2023-03-27T18:57:58.839Z,100.00
2023-03-27T19:00:25.392Z,100.00
2023-03-27T19:02:51.975Z,100.00
2023-03-27T19:05:18.958Z,100.00
2023-03-27T19:07:45.761Z,100.00
2023-03-27T19:10:13.920Z,100.00
2023-03-27T19:12:43.963Z,100.00
2023-03-27T19:15:30.972Z,100.00
2023-03-27T19:17:57.680Z,100.00
2023-03-27T19:21:01.332Z,100.00
2023-03-27T19:23:47.633Z,100.00
2023-03-27T19:26:17.552Z,100.00
2023-03-27T19:28:47.804Z,100.00
2023-03-27T19:31:14.759Z,100.00
2023-03-27T19:33:41.858Z,100.00
2023-03-27T19:36:09.862Z,100.00
2023-03-27T19:38:37.413Z,100.00
2023-03-27T19:41:08.046Z,100.00
2023-03-27T19:43:34.784Z,100.00
2023-03-27T19:46:14.894Z,100.00
2023-03-27T19:48:44.492Z,100.00
2023-03-27T19:51:19.884Z,100.00
2023-03-27T19:53:49.894Z,100.00
2023-03-27T19:56:19.866Z,100.00
2023-03-27T19:58:46.315Z,100.00
2023-03-27T20:01:12.763Z,100.00
2023-03-27T20:03:39.931Z,100.00
2023-03-27T20:06:13.264Z,100.00
2023-03-27T20:08:42.260Z,100.00
2023-03-27T20:11:12.631Z,100.00
2023-03-27T20:13:53.027Z,100.00
2023-03-27T20:16:26.071Z,100.00
2023-03-27T20:19:03.648Z,100.00
2023-03-27T20:21:36.108Z,100.00
2023-03-27T20:24:09.594Z,100.00
2023-03-27T20:26:41.446Z,100.00
2023-03-27T20:29:17.013Z,100.00
2023-03-27T20:31:45.043Z,100.00
2023-03-27T20:34:12.215Z,100.00
2023-03-27T20:36:39.178Z,100.00
2023-03-27T20:39:29.373Z,100.00
2023-03-27T20:41:59.068Z,100.00
2023-03-27T20:44:35.843Z,100.00
2023-03-27T20:47:03.520Z,100.00
2023-03-27T20:49:40.783Z,100.00
2023-03-27T20:52:11.313Z,100.00
2023-03-27T20:54:37.788Z,100.00
2023-03-27T20:57:04.736Z,100.00
2023-03-27T20:59:31.391Z,100.00
2023-03-27T21:01:59.121Z,100.00
2023-03-27T21:04:28.212Z,100.00
2023-03-27T21:06:55.374Z,100.00
2023-03-27T21:09:23.087Z,100.00
2023-03-27T21:11:54.436Z,100.00
2023-03-27T21:14:21.025Z,100.00
2023-03-27T21:16:47.709Z,100.00
2023-03-27T21:19:14.187Z,100.00
2023-03-27T21:21:40.941Z,100.00
2023-03-27T21:24:08.056Z,100.00
2023-03-27T21:26:35.282Z,100.00
2023-03-27T21:29:03.222Z,100.00
2023-03-27T21:31:29.967Z,100.00
2023-03-27T21:33:56.623Z,100.00
2023-03-27T21:36:23.428Z,100.00
2023-03-27T21:38:49.973Z,100.00
2023-03-27T21:41:17.178Z,100.00
2023-03-27T21:43:44.480Z,100.00
2023-03-27T21:46:11.140Z,100.00
2023-03-27T21:48:40.371Z,100.00
2023-03-27T21:51:08.650Z,100.00
2023-03-27T21:53:35.763Z,100.00
2023-03-27T21:56:02.442Z,100.00
2023-03-27T21:58:29.097Z,100.00
2023-03-27T22:00:57.418Z,100.00
2023-03-27T22:03:25.029Z,100.00
2023-03-27T22:06:07.682Z,100.00
2023-03-27T22:08:38.636Z,100.00
2023-03-27T22:11:05.626Z,100.00
2023-03-27T22:13:33.924Z,100.00
2023-03-27T22:16:00.745Z,100.00
2023-03-27T22:18:27.463Z,100.00
2023-03-27T22:20:54.073Z,100.00
2023-03-27T22:23:20.506Z,100.00
2023-03-27T22:25:55.052Z,100.00
2023-03-27T22:28:21.545Z,100.00
2023-03-27T22:30:48.269Z,100.00
2023-03-27T22:33:14.852Z,100.00
2023-03-27T22:35:47.709Z,100.00
2023-03-27T22:38:14.614Z,100.00
2023-03-27T22:40:41.049Z,100.00
2023-03-27T22:43:07.634Z,100.00
2023-03-27T22:45:37.068Z,100.00
2023-03-27T22:48:05.597Z,100.00
2023-03-27T22:50:32.259Z,100.00
2023-03-27T22:52:58.682Z,100.00
2023-03-27T22:55:25.384Z,100.00
2023-03-27T22:57:51.927Z,100.00
2023-03-27T23:00:18.889Z,100.00
2023-03-27T23:02:45.394Z,100.00
2023-03-27T23:05:11.986Z,100.00
2023-03-27T23:07:38.485Z,100.00
2023-03-27T23:10:05.458Z,100.00
2023-03-27T23:12:31.908Z,100.00
2023-03-27T23:14:58.352Z,100.00
2023-03-27T23:17:24.857Z,100.00
2023-03-27T23:19:51.526Z,100.00
2023-03-27T23:22:17.953Z,100.00
2023-03-27T23:24:45.022Z,100.00
2023-03-27T23:27:12.736Z,100.00
2023-03-27T23:29:39.225Z,100.00
2023-03-27T23:32:05.882Z,100.00
2023-03-27T23:34:32.359Z,100.00
2023-03-27T23:36:59.746Z,100.00
2023-03-27T23:39:26.287Z,100.00
2023-03-27T23:41:52.713Z,100.00
2023-03-27T23:44:19.186Z,100.00
2023-03-27T23:46:45.778Z,100.00
2023-03-27T23:49:13.182Z,100.00
2023-03-27T23:51:39.622Z,100.00
2023-03-27T23:54:06.117Z,100.00
2023-03-27T23:56:32.554Z,100.00
2023-03-27T23:58:59.168Z,100.00
